sensor_id;sensor_type;location;lat;lon;timestamp;pressure;altitude;pressure_sealevel;temperature;humidity
70248;BME280;57641;51.416;5.506;2023-02-21T00:02:28;102247.47;;;12.64;64.61
70248;BME280;57641;51.416;5.506;2023-02-21T00:05:12;102250.56;;;12.60;64.91
70248;BME280;57641;51.416;5.506;2023-02-21T00:07:56;102238.97;;;12.50;64.97
70248;BME280;57641;51.416;5.506;2023-02-21T00:10:40;102246.47;;;12.56;65.19
70248;BME280;57641;51.416;5.506;2023-02-21T00:13:25;102241.19;;;12.45;65.49
70248;BME280;57641;51.416;5.506;2023-02-21T00:16:13;102245.72;;;12.54;65.57
70248;BME280;57641;51.416;5.506;2023-02-21T00:18:58;102251.94;;;12.54;64.92
70248;BME280;57641;51.416;5.506;2023-02-21T00:21:43;102255.47;;;12.55;65.44
70248;BME280;57641;51.416;5.506;2023-02-21T00:24:27;102257.56;;;12.51;65.50
70248;BME280;57641;51.416;5.506;2023-02-21T00:27:11;102263.88;;;12.50;65.46
70248;BME280;57641;51.416;5.506;2023-02-21T00:29:55;102255.13;;;12.48;65.84
70248;BME280;57641;51.416;5.506;2023-02-21T00:32:39;102256.44;;;12.33;65.73
70248;BME280;57641;51.416;5.506;2023-02-21T00:35:24;102252.00;;;12.22;66.10
70248;BME280;57641;51.416;5.506;2023-02-21T00:38:09;102241.75;;;12.27;66.23
70248;BME280;57641;51.416;5.506;2023-02-21T00:40:53;102246.34;;;12.16;66.40
70248;BME280;57641;51.416;5.506;2023-02-21T00:43:37;102249.53;;;12.31;66.51
70248;BME280;57641;51.416;5.506;2023-02-21T00:46:22;102245.91;;;12.32;65.95
70248;BME280;57641;51.416;5.506;2023-02-21T00:49:06;102246.34;;;12.16;66.61
70248;BME280;57641;51.416;5.506;2023-02-21T00:51:51;102240.66;;;12.09;66.75
70248;BME280;57641;51.416;5.506;2023-02-21T00:54:35;102242.94;;;12.14;67.08
70248;BME280;57641;51.416;5.506;2023-02-21T00:57:20;102236.56;;;12.26;67.08
70248;BME280;57641;51.416;5.506;2023-02-21T01:00:07;102233.78;;;12.16;66.30
70248;BME280;57641;51.416;5.506;2023-02-21T01:02:51;102228.84;;;12.33;66.28
70248;BME280;57641;51.416;5.506;2023-02-21T01:05:36;102215.69;;;12.41;66.37
70248;BME280;57641;51.416;5.506;2023-02-21T01:08:20;102214.09;;;12.38;66.36
70248;BME280;57641;51.416;5.506;2023-02-21T01:11:04;102215.84;;;12.49;65.47
70248;BME280;57641;51.416;5.506;2023-02-21T01:13:48;102219.72;;;12.35;66.15
70248;BME280;57641;51.416;5.506;2023-02-21T01:16:33;102222.19;;;12.48;65.46
70248;BME280;57641;51.416;5.506;2023-02-21T01:19:17;102219.59;;;12.37;65.50
70248;BME280;57641;51.416;5.506;2023-02-21T01:22:03;102225.25;;;12.43;65.64
70248;BME280;57641;51.416;5.506;2023-02-21T01:24:49;102224.09;;;12.15;66.33
70248;BME280;57641;51.416;5.506;2023-02-21T01:27:34;102224.97;;;12.37;66.35
70248;BME280;57641;51.416;5.506;2023-02-21T01:30:18;102217.63;;;12.39;65.83
70248;BME280;57641;51.416;5.506;2023-02-21T01:33:02;102213.25;;;12.38;65.49
70248;BME280;57641;51.416;5.506;2023-02-21T01:35:46;102210.69;;;12.26;66.16
70248;BME280;57641;51.416;5.506;2023-02-21T01:38:34;102208.50;;;12.41;64.99
70248;BME280;57641;51.416;5.506;2023-02-21T01:41:19;102205.41;;;12.15;66.69
70248;BME280;57641;51.416;5.506;2023-02-21T01:44:20;102205.63;;;12.12;67.07
70248;BME280;57641;51.416;5.506;2023-02-21T01:47:11;102210.75;;;12.15;67.14
70248;BME280;57641;51.416;5.506;2023-02-21T01:49:57;102206.94;;;12.18;66.48
70248;BME280;57641;51.416;5.506;2023-02-21T01:52:41;102203.88;;;12.22;66.54
70248;BME280;57641;51.416;5.506;2023-02-21T01:55:25;102219.06;;;12.01;66.92
70248;BME280;57641;51.416;5.506;2023-02-21T01:58:10;102212.03;;;12.21;66.81
70248;BME280;57641;51.416;5.506;2023-02-21T02:00:55;102205.91;;;12.30;66.69
70248;BME280;57641;51.416;5.506;2023-02-21T02:03:39;102204.94;;;12.10;66.10
70248;BME280;57641;51.416;5.506;2023-02-21T02:06:24;102200.91;;;12.16;67.19
70248;BME280;57641;51.416;5.506;2023-02-21T02:09:16;102196.00;;;12.21;67.09
70248;BME280;57641;51.416;5.506;2023-02-21T02:12:45;102200.34;;;12.22;66.90
70248;BME280;57641;51.416;5.506;2023-02-21T02:28:54;102184.84;;;12.16;66.23
70248;BME280;57641;51.416;5.506;2023-02-21T02:37:39;102179.28;;;12.08;67.73
70248;BME280;57641;51.416;5.506;2023-02-21T02:40:13;102170.19;;;12.10;66.81
70248;BME280;57641;51.416;5.506;2023-02-21T02:43:01;102166.13;;;12.16;67.21
70248;BME280;57641;51.416;5.506;2023-02-21T02:45:35;102169.13;;;12.02;67.40
70248;BME280;57641;51.416;5.506;2023-02-21T02:48:12;102162.16;;;12.10;67.83
70248;BME280;57641;51.416;5.506;2023-02-21T02:50:40;102160.78;;;12.16;67.50
70248;BME280;57641;51.416;5.506;2023-02-21T02:53:09;102162.22;;;12.20;67.20
70248;BME280;57641;51.416;5.506;2023-02-21T02:55:47;102157.72;;;12.20;66.98
70248;BME280;57641;51.416;5.506;2023-02-21T02:58:16;102156.03;;;12.19;67.20
70248;BME280;57641;51.416;5.506;2023-02-21T03:00:47;102156.88;;;12.20;67.49
70248;BME280;57641;51.416;5.506;2023-02-21T03:06:53;102151.13;;;12.04;68.02
70248;BME280;57641;51.416;5.506;2023-02-21T03:09:30;102150.47;;;11.91;68.17
70248;BME280;57641;51.416;5.506;2023-02-21T03:12:23;102147.84;;;12.00;68.08
70248;BME280;57641;51.416;5.506;2023-02-21T03:14:57;102147.78;;;12.11;67.93
70248;BME280;57641;51.416;5.506;2023-02-21T03:17:26;102154.34;;;11.98;68.09
70248;BME280;57641;51.416;5.506;2023-02-21T03:19:55;102161.44;;;12.08;68.22
70248;BME280;57641;51.416;5.506;2023-02-21T03:22:24;102159.84;;;12.06;68.21
70248;BME280;57641;51.416;5.506;2023-02-21T03:24:53;102164.09;;;12.29;68.17
70248;BME280;57641;51.416;5.506;2023-02-21T03:27:20;102159.03;;;12.26;67.55
70248;BME280;57641;51.416;5.506;2023-02-21T03:29:48;102160.25;;;12.22;67.23
70248;BME280;57641;51.416;5.506;2023-02-21T03:32:23;102155.94;;;12.31;67.49
70248;BME280;57641;51.416;5.506;2023-02-21T03:34:49;102161.59;;;12.16;66.48
70248;BME280;57641;51.416;5.506;2023-02-21T03:37:39;102149.22;;;12.36;66.99
70248;BME280;57641;51.416;5.506;2023-02-21T03:40:28;102147.19;;;12.28;67.47
70248;BME280;57641;51.416;5.506;2023-02-21T03:42:56;102155.50;;;12.25;66.60
70248;BME280;57641;51.416;5.506;2023-02-21T03:45:22;102144.81;;;12.25;67.41
70248;BME280;57641;51.416;5.506;2023-02-21T03:47:48;102144.06;;;12.23;67.07
70248;BME280;57641;51.416;5.506;2023-02-21T03:50:14;102152.47;;;12.40;66.79
70248;BME280;57641;51.416;5.506;2023-02-21T03:52:39;102151.63;;;12.39;66.40
70248;BME280;57641;51.416;5.506;2023-02-21T03:55:07;102150.09;;;12.46;66.57
70248;BME280;57641;51.416;5.506;2023-02-21T03:57:33;102146.88;;;12.22;65.96
70248;BME280;57641;51.416;5.506;2023-02-21T03:59:59;102151.56;;;12.30;66.41
70248;BME280;57641;51.416;5.506;2023-02-21T04:02:25;102153.97;;;12.33;67.37
70248;BME280;57641;51.416;5.506;2023-02-21T04:04:51;102154.81;;;12.33;67.01
70248;BME280;57641;51.416;5.506;2023-02-21T04:07:18;102154.41;;;12.38;66.98
70248;BME280;57641;51.416;5.506;2023-02-21T04:09:45;102151.63;;;12.39;67.04
70248;BME280;57641;51.416;5.506;2023-02-21T04:12:11;102150.75;;;12.39;67.13
70248;BME280;57641;51.416;5.506;2023-02-21T04:14:37;102148.41;;;12.45;66.68
70248;BME280;57641;51.416;5.506;2023-02-21T04:17:03;102145.31;;;12.50;66.29
70248;BME280;57641;51.416;5.506;2023-02-21T04:19:28;102142.91;;;12.37;66.95
70248;BME280;57641;51.416;5.506;2023-02-21T04:21:54;102146.72;;;12.44;66.10
70248;BME280;57641;51.416;5.506;2023-02-21T04:24:20;102141.72;;;12.30;67.14
70248;BME280;57641;51.416;5.506;2023-02-21T04:26:45;102146.66;;;12.35;66.53
70248;BME280;57641;51.416;5.506;2023-02-21T04:29:11;102146.47;;;12.47;66.83
70248;BME280;57641;51.416;5.506;2023-02-21T04:31:37;102144.47;;;12.49;66.60
70248;BME280;57641;51.416;5.506;2023-02-21T04:34:03;102143.19;;;12.44;66.69
70248;BME280;57641;51.416;5.506;2023-02-21T04:36:29;102133.75;;;12.40;65.95
70248;BME280;57641;51.416;5.506;2023-02-21T04:38:55;102140.38;;;12.45;66.79
70248;BME280;57641;51.416;5.506;2023-02-21T04:41:21;102134.31;;;12.43;66.37
70248;BME280;57641;51.416;5.506;2023-02-21T04:43:50;102138.06;;;12.31;67.18
70248;BME280;57641;51.416;5.506;2023-02-21T04:46:17;102132.66;;;12.42;66.89
70248;BME280;57641;51.416;5.506;2023-02-21T04:48:43;102127.31;;;12.21;66.55
70248;BME280;57641;51.416;5.506;2023-02-21T04:51:11;102128.03;;;12.23;67.25
70248;BME280;57641;51.416;5.506;2023-02-21T04:53:36;102123.97;;;12.29;67.28
70248;BME280;57641;51.416;5.506;2023-02-21T04:56:02;102119.41;;;12.41;67.65
70248;BME280;57641;51.416;5.506;2023-02-21T04:58:28;102126.34;;;12.53;67.02
70248;BME280;57641;51.416;5.506;2023-02-21T05:00:54;102119.16;;;12.53;67.10
70248;BME280;57641;51.416;5.506;2023-02-21T05:03:20;102127.75;;;12.47;66.36
70248;BME280;57641;51.416;5.506;2023-02-21T05:05:46;102131.50;;;12.45;66.71
70248;BME280;57641;51.416;5.506;2023-02-21T05:08:12;102122.31;;;12.38;66.65
70248;BME280;57641;51.416;5.506;2023-02-21T05:10:38;102124.47;;;12.44;66.50
70248;BME280;57641;51.416;5.506;2023-02-21T05:13:04;102126.56;;;12.40;66.88
70248;BME280;57641;51.416;5.506;2023-02-21T05:15:29;102124.44;;;12.34;67.20
70248;BME280;57641;51.416;5.506;2023-02-21T05:17:55;102123.38;;;12.46;67.21
70248;BME280;57641;51.416;5.506;2023-02-21T05:20:20;102120.41;;;12.49;66.79
70248;BME280;57641;51.416;5.506;2023-02-21T05:22:48;102128.88;;;12.54;67.00
70248;BME280;57641;51.416;5.506;2023-02-21T05:25:15;102132.41;;;12.55;66.73
70248;BME280;57641;51.416;5.506;2023-02-21T05:27:41;102121.66;;;12.45;66.64
70248;BME280;57641;51.416;5.506;2023-02-21T05:30:08;102116.59;;;12.42;66.77
70248;BME280;57641;51.416;5.506;2023-02-21T05:32:33;102126.09;;;12.25;66.53
70248;BME280;57641;51.416;5.506;2023-02-21T05:34:59;102132.44;;;12.34;66.89
70248;BME280;57641;51.416;5.506;2023-02-21T05:37:24;102131.84;;;12.21;66.90
70248;BME280;57641;51.416;5.506;2023-02-21T05:39:50;102138.19;;;12.30;67.51
70248;BME280;57641;51.416;5.506;2023-02-21T05:42:16;102138.53;;;12.36;67.62
70248;BME280;57641;51.416;5.506;2023-02-21T05:44:45;102147.69;;;12.43;67.14
70248;BME280;57641;51.416;5.506;2023-02-21T05:47:13;102143.63;;;12.49;67.00
70248;BME280;57641;51.416;5.506;2023-02-21T05:49:39;102134.31;;;12.43;66.71
70248;BME280;57641;51.416;5.506;2023-02-21T05:52:04;102146.72;;;12.44;67.34
70248;BME280;57641;51.416;5.506;2023-02-21T05:54:30;102142.78;;;12.48;66.74
70248;BME280;57641;51.416;5.506;2023-02-21T05:56:56;102139.25;;;12.48;66.27
70248;BME280;57641;51.416;5.506;2023-02-21T05:59:22;102146.31;;;12.49;66.61
70248;BME280;57641;51.416;5.506;2023-02-21T06:01:48;102142.94;;;12.47;66.58
70248;BME280;57641;51.416;5.506;2023-02-21T06:04:15;102132.94;;;12.49;66.40
70248;BME280;57641;51.416;5.506;2023-02-21T06:06:41;102142.16;;;12.35;65.90
70248;BME280;57641;51.416;5.506;2023-02-21T06:09:07;102136.13;;;12.43;66.86
70248;BME280;57641;51.416;5.506;2023-02-21T06:11:35;102151.91;;;12.36;66.80
70248;BME280;57641;51.416;5.506;2023-02-21T06:14:03;102157.00;;;12.49;67.09
70248;BME280;57641;51.416;5.506;2023-02-21T06:16:34;102155.63;;;12.54;67.12
70248;BME280;57641;51.416;5.506;2023-02-21T06:19:00;102143.09;;;12.55;66.23
70248;BME280;57641;51.416;5.506;2023-02-21T06:21:26;102151.13;;;12.55;65.86
70248;BME280;57641;51.416;5.506;2023-02-21T06:23:52;102150.44;;;12.53;66.03
70248;BME280;57641;51.416;5.506;2023-02-21T06:26:18;102148.63;;;12.63;66.29
70248;BME280;57641;51.416;5.506;2023-02-21T06:28:45;102139.88;;;12.61;66.10
70248;BME280;57641;51.416;5.506;2023-02-21T06:31:10;102146.91;;;12.52;66.06
70248;BME280;57641;51.416;5.506;2023-02-21T06:33:36;102146.06;;;12.52;66.03
70248;BME280;57641;51.416;5.506;2023-02-21T06:36:04;102151.53;;;12.50;65.86
70248;BME280;57641;51.416;5.506;2023-02-21T06:38:30;102144.44;;;12.40;66.27
70248;BME280;57641;51.416;5.506;2023-02-21T06:40:56;102140.88;;;12.30;66.37
70248;BME280;57641;51.416;5.506;2023-02-21T06:43:22;102152.41;;;12.30;66.56
70248;BME280;57641;51.416;5.506;2023-02-21T06:45:47;102157.19;;;12.26;66.57
70248;BME280;57641;51.416;5.506;2023-02-21T06:48:14;102154.25;;;12.30;66.66
70248;BME280;57641;51.416;5.506;2023-02-21T06:50:40;102148.03;;;12.29;66.98
70248;BME280;57641;51.416;5.506;2023-02-21T06:53:06;102147.03;;;12.20;66.70
70248;BME280;57641;51.416;5.506;2023-02-21T06:55:31;102146.66;;;12.35;66.07
70248;BME280;57641;51.416;5.506;2023-02-21T06:57:58;102153.41;;;12.29;66.97
70248;BME280;57641;51.416;5.506;2023-02-21T07:00:23;102152.53;;;12.28;66.77
70248;BME280;57641;51.416;5.506;2023-02-21T07:02:51;102151.13;;;12.24;66.42
70248;BME280;57641;51.416;5.506;2023-02-21T07:05:17;102147.31;;;12.27;67.17
70248;BME280;57641;51.416;5.506;2023-02-21T07:07:44;102155.66;;;12.34;67.29
70248;BME280;57641;51.416;5.506;2023-02-21T07:10:09;102158.94;;;12.37;66.60
70248;BME280;57641;51.416;5.506;2023-02-21T07:12:36;102151.50;;;12.41;66.66
70248;BME280;57641;51.416;5.506;2023-02-21T07:15:02;102145.94;;;12.33;66.74
70248;BME280;57641;51.416;5.506;2023-02-21T07:17:28;102143.28;;;12.33;66.45
70248;BME280;57641;51.416;5.506;2023-02-21T07:19:53;102147.72;;;12.22;66.59
70248;BME280;57641;51.416;5.506;2023-02-21T07:22:19;102157.50;;;12.12;66.67
70248;BME280;57641;51.416;5.506;2023-02-21T07:24:51;102158.25;;;12.14;67.09
70248;BME280;57641;51.416;5.506;2023-02-21T07:27:17;102154.97;;;12.11;67.30
70248;BME280;57641;51.416;5.506;2023-02-21T07:29:46;102149.03;;;12.07;67.02
70248;BME280;57641;51.416;5.506;2023-02-21T07:32:14;102141.25;;;11.95;67.66
70248;BME280;57641;51.416;5.506;2023-02-21T07:34:40;102147.03;;;12.00;67.76
70248;BME280;57641;51.416;5.506;2023-02-21T07:37:07;102155.63;;;12.03;67.27
70248;BME280;57641;51.416;5.506;2023-02-21T07:39:33;102148.59;;;12.02;67.59
70248;BME280;57641;51.416;5.506;2023-02-21T07:41:58;102147.94;;;11.89;67.79
70248;BME280;57641;51.416;5.506;2023-02-21T07:44:24;102151.13;;;12.04;67.21
70248;BME280;57641;51.416;5.506;2023-02-21T07:46:49;102158.50;;;12.11;67.66
70248;BME280;57641;51.416;5.506;2023-02-21T07:49:15;102156.03;;;11.99;67.69
70248;BME280;57641;51.416;5.506;2023-02-21T07:51:40;102162.22;;;11.99;67.40
70248;BME280;57641;51.416;5.506;2023-02-21T07:54:06;102156.53;;;11.93;67.46
70248;BME280;57641;51.416;5.506;2023-02-21T07:56:31;102151.53;;;11.99;67.38
70248;BME280;57641;51.416;5.506;2023-02-21T07:58:57;102158.94;;;11.96;67.90
70248;BME280;57641;51.416;5.506;2023-02-21T08:01:24;102152.56;;;12.08;67.16
70248;BME280;57641;51.416;5.506;2023-02-21T08:03:50;102159.28;;;12.02;67.19
70248;BME280;57641;51.416;5.506;2023-02-21T08:06:16;102155.38;;;11.85;67.18
70248;BME280;57641;51.416;5.506;2023-02-21T08:08:43;102152.97;;;11.82;67.63
70248;BME280;57641;51.416;5.506;2023-02-21T08:11:09;102158.50;;;11.91;68.17
70248;BME280;57641;51.416;5.506;2023-02-21T08:13:34;102155.88;;;11.79;67.75
70248;BME280;57641;51.416;5.506;2023-02-21T08:16:00;102164.63;;;11.81;68.00
70248;BME280;57641;51.416;5.506;2023-02-21T08:18:26;102161.44;;;11.88;68.00
70248;BME280;57641;51.416;5.506;2023-02-21T08:20:53;102151.25;;;12.02;68.25
70248;BME280;57641;51.416;5.506;2023-02-21T08:23:19;102161.09;;;12.02;67.81
70248;BME280;57641;51.416;5.506;2023-02-21T08:25:46;102157.84;;;11.98;67.58
70248;BME280;57641;51.416;5.506;2023-02-21T08:28:13;102162.06;;;12.01;67.76
70248;BME280;57641;51.416;5.506;2023-02-21T08:30:39;102154.38;;;12.07;66.97
70248;BME280;57641;51.416;5.506;2023-02-21T08:33:24;102162.75;;;12.14;66.93
70248;BME280;57641;51.416;5.506;2023-02-21T08:36:10;102151.53;;;12.20;66.60
70248;BME280;57641;51.416;5.506;2023-02-21T08:38:56;102149.50;;;12.12;66.87
70248;BME280;57641;51.416;5.506;2023-02-21T08:41:21;102140.31;;;12.05;67.15
70248;BME280;57641;51.416;5.506;2023-02-21T08:43:47;102146.03;;;12.21;66.99
70248;BME280;57641;51.416;5.506;2023-02-21T08:46:14;102151.91;;;12.36;67.46
70248;BME280;57641;51.416;5.506;2023-02-21T08:48:39;102154.41;;;12.38;67.11
70248;BME280;57641;51.416;5.506;2023-02-21T08:51:05;102151.91;;;12.36;66.65
70248;BME280;57641;51.416;5.506;2023-02-21T08:53:30;102145.44;;;12.18;66.98
70248;BME280;57641;51.416;5.506;2023-02-21T08:55:56;102134.97;;;12.05;66.63
70248;BME280;57641;51.416;5.506;2023-02-21T08:58:21;102139.84;;;12.21;66.86
70248;BME280;57641;51.416;5.506;2023-02-21T09:00:47;102144.66;;;12.27;67.15
70248;BME280;57641;51.416;5.506;2023-02-21T09:03:12;102152.00;;;12.35;66.77
70248;BME280;57641;51.416;5.506;2023-02-21T09:05:38;102147.06;;;12.30;66.56
70248;BME280;57641;51.416;5.506;2023-02-21T09:08:03;102148.31;;;12.26;66.55
70248;BME280;57641;51.416;5.506;2023-02-21T09:10:31;102145.94;;;12.33;66.59
70248;BME280;57641;51.416;5.506;2023-02-21T09:13:01;102136.19;;;12.22;66.57
70248;BME280;57641;51.416;5.506;2023-02-21T09:15:27;102139.38;;;12.37;66.43
70248;BME280;57641;51.416;5.506;2023-02-21T09:17:54;102144.03;;;12.44;65.87
70248;BME280;57641;51.416;5.506;2023-02-21T09:20:22;102140.25;;;12.47;66.44
70248;BME280;57641;51.416;5.506;2023-02-21T09:22:48;102137.19;;;12.51;66.06
70248;BME280;57641;51.416;5.506;2023-02-21T09:25:16;102132.88;;;12.39;65.38
70248;BME280;57641;51.416;5.506;2023-02-21T09:27:42;102129.53;;;12.37;66.22
70248;BME280;57641;51.416;5.506;2023-02-21T09:30:11;102126.97;;;12.36;66.19
70248;BME280;57641;51.416;5.506;2023-02-21T09:32:37;102125.69;;;12.30;66.64
70248;BME280;57641;51.416;5.506;2023-02-21T09:35:04;102126.66;;;12.29;66.89
70248;BME280;57641;51.416;5.506;2023-02-21T09:37:31;102126.25;;;12.34;66.72
70248;BME280;57641;51.416;5.506;2023-02-21T09:39:57;102131.34;;;12.37;66.24
70248;BME280;57641;51.416;5.506;2023-02-21T09:42:28;102121.13;;;12.51;66.56
70248;BME280;57641;51.416;5.506;2023-02-21T09:44:54;102121.31;;;12.29;66.20
70248;BME280;57641;51.416;5.506;2023-02-21T09:47:26;102118.94;;;12.36;65.99
70248;BME280;57641;51.416;5.506;2023-02-21T09:50:03;102122.09;;;12.20;66.43
70248;BME280;57641;51.416;5.506;2023-02-21T09:52:33;102125.16;;;12.36;67.17
70248;BME280;57641;51.416;5.506;2023-02-21T09:55:04;102123.59;;;12.43;67.06
70248;BME280;57641;51.416;5.506;2023-02-21T09:57:32;102123.06;;;12.49;66.82
70248;BME280;57641;51.416;5.506;2023-02-21T09:59:58;102122.81;;;12.52;66.32
70248;BME280;57641;51.416;5.506;2023-02-21T10:08:25;102126.78;;;12.58;66.10
70248;BME280;57641;51.416;5.506;2023-02-21T10:11:02;102125.34;;;12.54;65.69
70248;BME280;57641;51.416;5.506;2023-02-21T10:13:41;102127.34;;;12.61;65.42
70248;BME280;57641;51.416;5.506;2023-02-21T10:16:43;102134.56;;;12.70;65.68
70248;BME280;57641;51.416;5.506;2023-02-21T10:21:48;102127.22;;;12.63;65.75
70248;BME280;57641;51.416;5.506;2023-02-21T10:24:16;102135.28;;;12.73;65.56
70248;BME280;57641;51.416;5.506;2023-02-21T10:26:47;102137.69;;;12.85;65.45
70248;BME280;57641;51.416;5.506;2023-02-21T10:29:23;102136.28;;;12.81;64.96
70248;BME280;57641;51.416;5.506;2023-02-21T10:31:55;102127.28;;;12.82;65.02
70248;BME280;57641;51.416;5.506;2023-02-21T10:34:25;102131.34;;;12.77;65.11
70248;BME280;57641;51.416;5.506;2023-02-21T10:36:54;102128.97;;;12.74;64.55
70248;BME280;57641;51.416;5.506;2023-02-21T10:39:40;102133.03;;;12.68;64.53
70248;BME280;57641;51.416;5.506;2023-02-21T10:44:52;102132.63;;;12.73;65.79
70248;BME280;57641;51.416;5.506;2023-02-21T10:47:22;102136.16;;;12.83;65.15
70248;BME280;57641;51.416;5.506;2023-02-21T10:50:05;102133.19;;;12.76;64.47
70248;BME280;57641;51.416;5.506;2023-02-21T10:52:46;102128.09;;;12.63;64.67
70248;BME280;57641;51.416;5.506;2023-02-21T10:55:19;102136.38;;;12.70;65.03
70248;BME280;57641;51.416;5.506;2023-02-21T10:57:52;102128.25;;;12.81;64.62
70248;BME280;57641;51.416;5.506;2023-02-21T11:00:24;102128.56;;;12.88;64.37
70248;BME280;57641;51.416;5.506;2023-02-21T11:02:56;102120.34;;;12.80;64.62
70248;BME280;57641;51.416;5.506;2023-02-21T11:05:27;102119.97;;;12.84;64.54
70248;BME280;57641;51.416;5.506;2023-02-21T11:07:59;102122.50;;;12.86;64.16
70248;BME280;57641;51.416;5.506;2023-02-21T11:10:40;102125.72;;;12.80;64.18
70248;BME280;57641;51.416;5.506;2023-02-21T11:13:17;102117.00;;;12.78;63.41
70248;BME280;57641;51.416;5.506;2023-02-21T11:15:45;102106.72;;;12.83;64.33
70248;BME280;57641;51.416;5.506;2023-02-21T11:18:22;102117.13;;;12.86;63.96
70248;BME280;57641;51.416;5.506;2023-02-21T11:20:49;102116.59;;;12.92;64.14
70248;BME280;57641;51.416;5.506;2023-02-21T11:25:56;102107.47;;;12.54;64.84
70248;BME280;57641;51.416;5.506;2023-02-21T11:28:24;102100.16;;;12.56;64.64
70248;BME280;57641;51.416;5.506;2023-02-21T11:33:25;102102.75;;;12.77;64.06
70248;BME280;57641;51.416;5.506;2023-02-21T11:35:53;102092.59;;;12.71;63.92
70248;BME280;57641;51.416;5.506;2023-02-21T11:38:39;102091.81;;;12.90;64.01
70248;BME280;57641;51.416;5.506;2023-02-21T11:41:21;102090.13;;;12.89;63.88
70248;BME280;57641;51.416;5.506;2023-02-21T11:43:52;102085.19;;;13.03;63.85
70248;BME280;57641;51.416;5.506;2023-02-21T11:46:43;102085.75;;;12.97;62.79
70248;BME280;57641;51.416;5.506;2023-02-21T11:49:40;102075.91;;;12.98;62.62
70248;BME280;57641;51.416;5.506;2023-02-21T11:52:13;102069.25;;;12.83;62.85
70248;BME280;57641;51.416;5.506;2023-02-21T11:54:40;102077.84;;;12.96;62.80
70248;BME280;57641;51.416;5.506;2023-02-21T11:57:28;102074.41;;;13.15;62.63
70248;BME280;57641;51.416;5.506;2023-02-21T12:06:16;102065.06;;;13.09;62.20
70248;BME280;57641;51.416;5.506;2023-02-21T12:09:08;102062.56;;;13.27;61.72
70248;BME280;57641;51.416;5.506;2023-02-21T12:11:50;102062.56;;;13.27;61.28
70248;BME280;57641;51.416;5.506;2023-02-21T12:20:14;102057.88;;;13.09;61.38
70248;BME280;57641;51.416;5.506;2023-02-21T12:28:52;102048.31;;;13.17;61.49
70248;BME280;57641;51.416;5.506;2023-02-21T12:37:20;102039.28;;;13.18;60.77
70248;BME280;57641;51.416;5.506;2023-02-21T12:48:04;102039.03;;;13.30;60.92
70248;BME280;57641;51.416;5.506;2023-02-21T12:50:35;102033.13;;;13.27;59.77
70248;BME280;57641;51.416;5.506;2023-02-21T12:53:19;102036.78;;;13.26;60.31
70248;BME280;57641;51.416;5.506;2023-02-21T12:55:51;102030.13;;;13.30;59.96
70248;BME280;57641;51.416;5.506;2023-02-21T12:58:30;102025.06;;;13.36;59.93
70248;BME280;57641;51.416;5.506;2023-02-21T13:01:02;102034.38;;;13.32;60.38
70248;BME280;57641;51.416;5.506;2023-02-21T13:03:55;102033.78;;;13.29;59.84
70248;BME280;57641;51.416;5.506;2023-02-21T13:06:27;102028.44;;;13.29;59.75
70248;BME280;57641;51.416;5.506;2023-02-21T13:12:04;102021.41;;;13.37;59.51
70248;BME280;57641;51.416;5.506;2023-02-21T13:14:48;102033.78;;;13.38;58.81
70248;BME280;57641;51.416;5.506;2023-02-21T13:17:18;102032.13;;;13.37;59.24
70248;BME280;57641;51.416;5.506;2023-02-21T13:19:48;102015.47;;;13.34;59.38
70248;BME280;57641;51.416;5.506;2023-02-21T13:28:27;102006.31;;;13.17;60.44
70248;BME280;57641;51.416;5.506;2023-02-21T13:30:58;102006.34;;;13.27;60.97
70248;BME280;57641;51.416;5.506;2023-02-21T13:33:43;102004.75;;;13.34;60.70
70248;BME280;57641;51.416;5.506;2023-02-21T13:36:29;101993.47;;;13.30;60.30
70248;BME280;57641;51.416;5.506;2023-02-21T13:41:49;101991.53;;;13.32;60.45
70248;BME280;57641;51.416;5.506;2023-02-21T13:44:24;101989.41;;;13.26;59.66
70248;BME280;57641;51.416;5.506;2023-02-21T13:49:52;101987.28;;;13.30;59.45
70248;BME280;57641;51.416;5.506;2023-02-21T14:10:59;101976.97;;;12.77;61.03
70248;BME280;57641;51.416;5.506;2023-02-21T14:18:44;101973.88;;;12.91;61.11
70248;BME280;57641;51.416;5.506;2023-02-21T14:21:35;101975.00;;;13.08;61.38
70248;BME280;57641;51.416;5.506;2023-02-21T14:24:14;101977.44;;;13.21;60.77
70248;BME280;57641;51.416;5.506;2023-02-21T14:27:00;101975.03;;;13.18;60.34
70248;BME280;57641;51.416;5.506;2023-02-21T14:29:40;101969.78;;;13.06;60.30
70248;BME280;57641;51.416;5.506;2023-02-21T14:34:54;101967.28;;;13.15;60.26
70248;BME280;57641;51.416;5.506;2023-02-21T14:37:26;101971.66;;;13.16;60.02
70248;BME280;57641;51.416;5.506;2023-02-21T14:39:55;101963.59;;;13.06;60.12
70248;BME280;57641;51.416;5.506;2023-02-21T14:48:18;101950.63;;;13.01;60.14
70248;BME280;57641;51.416;5.506;2023-02-21T15:02:12;101952.47;;;12.82;61.84
70248;BME280;57641;51.416;5.506;2023-02-21T15:04:23;101945.03;;;12.95;61.50
70248;BME280;57641;51.416;5.506;2023-02-21T15:12:48;101947.13;;;12.82;61.24
70248;BME280;57641;51.416;5.506;2023-02-21T15:15:22;101947.13;;;12.82;61.24
70248;BME280;57641;51.416;5.506;2023-02-21T15:18:02;101946.13;;;12.92;61.36
70248;BME280;57641;51.416;5.506;2023-02-21T15:20:30;101947.13;;;12.91;61.30
70248;BME280;57641;51.416;5.506;2023-02-21T15:23:19;101946.56;;;12.97;61.13
70248;BME280;57641;51.416;5.506;2023-02-21T15:25:53;101945.28;;;12.92;60.77
70248;BME280;57641;51.416;5.506;2023-02-21T15:28:28;101937.69;;;12.87;60.94
70248;BME280;57641;51.416;5.506;2023-02-21T15:31:00;101938.22;;;12.91;61.43
70248;BME280;57641;51.416;5.506;2023-02-21T15:33:29;101938.94;;;13.02;60.94
70248;BME280;57641;51.416;5.506;2023-02-21T15:35:59;101927.97;;;13.05;60.87